createdAt,value
2023-05-01T00:02:10.987Z,76.75
2023-05-01T00:04:39.507Z,77.44
2023-05-01T00:07:08.055Z,77.14
2023-05-01T00:09:36.690Z,76.69
2023-05-01T00:12:05.635Z,77.41
2023-05-01T00:14:34.173Z,76.50
2023-05-01T00:17:03.547Z,76.48
2023-05-01T00:19:33.117Z,76.27
2023-05-01T00:22:02.352Z,74.63
2023-05-01T00:24:30.912Z,72.59
2023-05-01T00:26:59.538Z,71.23
2023-05-01T00:29:28.064Z,69.19
2023-05-01T00:31:56.861Z,68.13
2023-05-01T00:34:25.884Z,66.89
2023-05-01T00:36:54.389Z,66.30
2023-05-01T00:39:22.684Z,66.06
2023-05-01T00:41:51.213Z,65.87
2023-05-01T00:44:19.734Z,65.94
2023-05-01T00:46:48.990Z,65.82
2023-05-01T00:49:17.811Z,65.72
2023-05-01T00:51:51.022Z,65.29
2023-05-01T00:54:20.078Z,65.57
2023-05-01T00:56:53.672Z,66.01
2023-05-01T00:59:22.698Z,66.21
2023-05-01T01:04:20.682Z,65.51
2023-05-01T01:07:17.372Z,65.86
2023-05-01T01:10:07.167Z,66.25
2023-05-01T01:13:07.801Z,66.46
2023-05-01T01:15:46.997Z,66.58
2023-05-01T01:18:49.016Z,66.60
2023-05-01T01:21:39.779Z,66.04
2023-05-01T01:24:49.864Z,66.31
2023-05-01T01:28:07.475Z,66.67
2023-05-01T01:31:22.307Z,66.38
2023-05-01T01:34:29.571Z,65.93
2023-05-01T01:37:26.743Z,65.90
2023-05-01T01:40:05.225Z,66.13
2023-05-01T01:42:43.296Z,66.49
2023-05-01T01:45:20.660Z,65.92
2023-05-01T01:47:49.880Z,65.76
2023-05-01T01:50:20.196Z,64.91
2023-05-01T01:52:52.335Z,65.48
2023-05-01T01:55:27.875Z,64.84
2023-05-01T01:57:56.359Z,64.51
2023-05-01T02:00:25.165Z,64.63
2023-05-01T02:02:55.314Z,65.04
2023-05-01T02:05:23.968Z,64.93
2023-05-01T02:07:54.004Z,65.02
2023-05-01T02:10:24.557Z,66.09
2023-05-01T02:12:54.506Z,67.47
2023-05-01T02:15:23.620Z,68.54
2023-05-01T02:17:53.744Z,67.68
2023-05-01T02:20:23.447Z,66.60
2023-05-01T02:22:53.771Z,66.58
2023-05-01T02:25:22.486Z,66.24
2023-05-01T02:28:22.881Z,65.88
2023-05-01T02:30:52.797Z,65.60
2023-05-01T02:33:21.497Z,65.16
2023-05-01T02:35:50.196Z,65.40
2023-05-01T02:38:18.843Z,65.04
2023-05-01T02:40:55.218Z,65.45
2023-05-01T02:43:24.269Z,65.24
2023-05-01T02:45:55.218Z,65.39
2023-05-01T02:48:29.558Z,65.86
2023-05-01T02:50:59.756Z,70.99
2023-05-01T02:53:28.299Z,72.99
2023-05-01T02:55:56.992Z,73.03
2023-05-01T02:58:25.160Z,74.17
2023-05-01T03:00:53.690Z,76.18
2023-05-01T03:03:22.306Z,75.99
2023-05-01T03:05:51.852Z,75.98
2023-05-01T03:08:19.948Z,75.58
2023-05-01T03:10:48.111Z,74.99
2023-05-01T03:13:16.816Z,73.24
2023-05-01T03:15:46.587Z,71.16
2023-05-01T03:18:15.072Z,70.88
2023-05-01T03:20:52.192Z,72.56
2023-05-01T03:23:21.245Z,73.71
2023-05-01T03:25:49.485Z,74.51
2023-05-01T03:28:17.676Z,76.07
2023-05-01T03:30:46.458Z,77.50
2023-05-01T03:33:14.609Z,77.42
2023-05-01T03:35:42.827Z,76.18
2023-05-01T03:38:11.801Z,74.31
2023-05-01T03:40:40.424Z,74.25
2023-05-01T03:43:08.515Z,74.65
2023-05-01T03:45:37.101Z,74.98
2023-05-01T03:48:06.089Z,73.69
2023-05-01T03:50:34.615Z,72.68
2023-05-01T03:53:02.796Z,72.49
2023-05-01T03:55:31.297Z,72.88
2023-05-01T03:58:00.666Z,72.95
2023-05-01T04:00:28.964Z,72.57
2023-05-01T04:02:57.780Z,73.75
2023-05-01T04:05:26.590Z,75.21
2023-05-01T04:07:55.158Z,76.40
2023-05-01T04:10:23.722Z,77.29
2023-05-01T04:12:52.321Z,77.05
2023-05-01T04:15:22.759Z,75.47
2023-05-01T04:17:51.466Z,76.98
2023-05-01T04:20:20.348Z,76.81
2023-05-01T04:22:49.317Z,76.44
2023-05-01T04:25:17.692Z,74.33
2023-05-01T04:27:46.449Z,75.37
2023-05-01T04:30:15.106Z,77.01
2023-05-01T04:32:43.795Z,77.80
2023-05-01T04:35:12.277Z,78.34
2023-05-01T04:37:40.655Z,77.98
2023-05-01T04:40:11.637Z,77.01
2023-05-01T04:42:40.702Z,74.67
2023-05-01T04:45:09.481Z,70.97
2023-05-01T04:47:38.108Z,67.95
2023-05-01T04:50:07.331Z,66.54
2023-05-01T04:52:36.003Z,66.67
2023-05-01T04:55:04.687Z,66.21
2023-05-01T04:57:33.173Z,65.24
2023-05-01T05:00:03.307Z,65.25
2023-05-01T05:02:32.081Z,65.33
2023-05-01T05:05:00.390Z,66.21
2023-05-01T05:07:29.007Z,65.86
2023-05-01T05:09:57.699Z,64.71
2023-05-01T05:12:26.486Z,65.42
2023-05-01T05:14:55.018Z,65.40
2023-05-01T05:17:23.485Z,64.67
2023-05-01T05:19:52.063Z,65.10
2023-05-01T05:22:20.617Z,63.65
2023-05-01T05:24:49.419Z,63.77
2023-05-01T05:27:18.127Z,62.46
2023-05-01T05:29:46.869Z,61.82
2023-05-01T05:32:15.406Z,61.34
2023-05-01T05:34:43.596Z,62.25
2023-05-01T05:37:12.615Z,62.03
2023-05-01T05:39:40.689Z,61.52
2023-05-01T05:42:09.269Z,59.62
2023-05-01T05:44:37.520Z,59.64
2023-05-01T05:47:06.315Z,59.73
2023-05-01T05:49:35.178Z,59.07
2023-05-01T05:52:03.375Z,57.61
2023-05-01T05:54:31.928Z,57.23
2023-05-01T05:57:00.544Z,56.87
2023-05-01T05:59:29.358Z,57.37
2023-05-01T06:01:58.067Z,57.17
2023-05-01T06:04:26.432Z,57.84
2023-05-01T06:06:55.190Z,57.91
2023-05-01T06:09:24.120Z,58.10
2023-05-01T06:11:52.684Z,56.83
2023-05-01T06:14:21.138Z,56.48
2023-05-01T06:16:49.657Z,56.79
2023-05-01T06:19:18.236Z,56.62
2023-05-01T06:21:46.778Z,56.72
2023-05-01T06:24:16.026Z,56.89
2023-05-01T06:26:44.388Z,56.54
2023-05-01T06:29:12.938Z,56.49
2023-05-01T06:31:41.876Z,54.37
2023-05-01T06:34:10.525Z,54.64
2023-05-01T06:36:39.249Z,53.03
2023-05-01T06:39:07.749Z,52.48
2023-05-01T06:41:36.304Z,52.20
2023-05-01T06:44:05.181Z,49.96
2023-05-01T06:46:34.042Z,49.83
2023-05-01T06:49:02.132Z,49.96
2023-05-01T06:51:31.775Z,50.16
2023-05-01T06:54:00.384Z,49.49
2023-05-01T06:56:28.914Z,47.96
2023-05-01T06:58:57.582Z,47.10
2023-05-01T07:01:25.983Z,47.20
2023-05-01T07:03:54.572Z,47.05
2023-05-01T07:06:23.273Z,46.89
2023-05-01T07:08:52.065Z,46.69
2023-05-01T07:11:20.590Z,46.49
2023-05-01T07:13:49.092Z,46.16
2023-05-01T07:16:17.877Z,45.77
2023-05-01T07:18:46.373Z,45.80
2023-05-01T07:21:15.104Z,46.09
2023-05-01T07:23:43.741Z,45.26
2023-05-01T07:26:12.792Z,45.23
2023-05-01T07:28:41.897Z,44.89
2023-05-01T07:31:11.627Z,43.69
2023-05-01T07:33:40.424Z,42.54
2023-05-01T07:36:09.288Z,42.33
2023-05-01T07:38:38.008Z,43.43
2023-05-01T07:41:06.748Z,44.43
2023-05-01T07:43:35.468Z,43.96
2023-05-01T07:46:04.109Z,44.46
2023-05-01T07:48:35.039Z,43.36
2023-05-01T07:51:04.533Z,43.38
2023-05-01T07:53:33.192Z,43.50
2023-05-01T07:56:11.528Z,41.34
2023-05-01T07:58:41.649Z,41.07
2023-05-01T08:01:10.721Z,40.42
2023-05-01T08:03:39.557Z,41.52
2023-05-01T08:06:08.462Z,42.41
2023-05-01T08:08:37.103Z,42.79
2023-05-01T08:11:05.794Z,42.59
2023-05-01T08:13:34.327Z,42.22
2023-05-01T08:16:06.380Z,42.31
2023-05-01T08:18:35.301Z,41.78
2023-05-01T08:21:04.004Z,41.05
2023-05-01T08:23:32.881Z,41.56
2023-05-01T08:26:02.428Z,41.68
2023-05-01T08:28:31.191Z,42.33
2023-05-01T08:30:59.665Z,42.29
2023-05-01T08:33:28.304Z,40.20
2023-05-01T08:35:57.024Z,38.85
2023-05-01T08:38:25.584Z,38.07
2023-05-01T08:40:56.951Z,37.54
2023-05-01T08:43:26.296Z,37.10
2023-05-01T08:45:57.504Z,37.25
2023-05-01T08:48:27.554Z,38.08
2023-05-01T08:50:59.566Z,38.23
2023-05-01T08:53:28.757Z,38.88
2023-05-01T08:56:01.576Z,40.18
2023-05-01T08:58:30.937Z,40.66
2023-05-01T09:01:01.810Z,39.48
2023-05-01T09:03:33.346Z,40.94
2023-05-01T09:06:02.388Z,39.93
2023-05-01T09:08:31.549Z,40.00
2023-05-01T09:11:01.252Z,38.24
2023-05-01T09:13:29.875Z,38.03
2023-05-01T09:15:58.498Z,39.23
2023-05-01T09:18:27.172Z,38.38
2023-05-01T09:20:56.151Z,38.57
2023-05-01T09:23:24.867Z,38.34
2023-05-01T09:25:54.031Z,38.49
2023-05-01T09:28:45.789Z,38.81
2023-05-01T09:31:24.084Z,39.98
2023-05-01T09:34:02.684Z,39.83
2023-05-01T09:36:34.517Z,40.31
2023-05-01T09:39:03.319Z,37.30
2023-05-01T09:41:33.537Z,37.60
2023-05-01T09:44:02.598Z,37.72
2023-05-01T09:46:43.785Z,39.29
2023-05-01T09:49:13.224Z,40.18
2023-05-01T09:51:41.831Z,39.61
2023-05-01T09:54:21.697Z,38.30
2023-05-01T09:56:51.242Z,38.72
2023-05-01T09:59:22.138Z,37.96
2023-05-01T10:01:51.479Z,36.87
2023-05-01T10:04:20.193Z,36.06
2023-05-01T10:06:48.750Z,36.07
2023-05-01T10:09:29.832Z,36.60
2023-05-01T10:11:59.481Z,37.48
2023-05-01T10:14:29.790Z,37.37
2023-05-01T10:16:59.445Z,38.52
2023-05-01T10:19:28.286Z,38.86
2023-05-01T10:21:57.069Z,36.61
2023-05-01T10:24:25.867Z,36.29
2023-05-01T10:26:55.564Z,37.58
2023-05-01T10:29:25.778Z,38.16
2023-05-01T10:31:54.488Z,38.06
2023-05-01T10:34:27.722Z,37.95
2023-05-01T10:37:21.662Z,36.37
2023-05-01T10:39:50.486Z,36.08
2023-05-01T10:42:19.137Z,35.93
2023-05-01T10:44:48.039Z,36.11
2023-05-01T10:47:28.791Z,36.25
2023-05-01T10:50:10.140Z,36.46
2023-05-01T10:53:12.453Z,34.88
2023-05-01T10:55:43.547Z,35.72
2023-05-01T10:58:12.510Z,35.65
2023-05-01T11:00:41.163Z,34.26
2023-05-01T11:03:24.476Z,35.06
2023-05-01T11:06:02.382Z,35.09
2023-05-01T11:08:32.244Z,35.65
2023-05-01T11:11:19.407Z,35.05
2023-05-01T11:14:07.597Z,36.82
2023-05-01T11:16:39.103Z,35.39
2023-05-01T11:19:08.304Z,35.52
2023-05-01T11:21:39.116Z,35.49
2023-05-01T11:24:09.020Z,36.16
2023-05-01T11:26:42.829Z,37.52
2023-05-01T11:29:13.255Z,35.70
2023-05-01T11:31:41.811Z,36.11
2023-05-01T11:34:10.493Z,36.57
2023-05-01T11:36:53.525Z,35.42
2023-05-01T11:39:22.278Z,35.42
2023-05-01T11:41:51.024Z,35.76
2023-05-01T11:44:20.008Z,36.47
2023-05-01T11:46:58.272Z,36.93
2023-05-01T11:49:29.845Z,36.27
2023-05-01T11:51:59.376Z,35.88
2023-05-01T11:54:28.481Z,36.11
2023-05-01T11:57:01.954Z,37.30
2023-05-01T11:59:30.651Z,37.41
2023-05-01T12:01:59.341Z,37.78
2023-05-01T12:04:32.365Z,37.95
2023-05-01T12:07:01.377Z,38.15
2023-05-01T12:09:30.598Z,38.79
2023-05-01T12:12:02.015Z,38.28
2023-05-01T12:14:30.671Z,38.33
2023-05-01T12:16:59.313Z,38.39
2023-05-01T12:19:27.893Z,38.32
2023-05-01T12:22:11.500Z,38.48
2023-05-01T12:24:40.063Z,39.17
2023-05-01T12:27:09.275Z,39.40
2023-05-01T12:29:44.809Z,39.31
2023-05-01T12:32:13.348Z,37.04
2023-05-01T12:34:42.256Z,37.85
2023-05-01T12:37:11.710Z,37.15
2023-05-01T12:39:42.451Z,36.95
2023-05-01T12:42:16.942Z,36.44
2023-05-01T12:44:46.048Z,36.93
2023-05-01T12:47:14.958Z,36.29
2023-05-01T12:49:43.665Z,36.00
2023-05-01T12:52:12.258Z,36.17
2023-05-01T12:54:44.705Z,37.01
2023-05-01T12:57:18.281Z,38.04
2023-05-01T12:59:49.598Z,36.92
2023-05-01T13:02:19.689Z,35.26
2023-05-01T13:04:49.576Z,36.12
2023-05-01T13:07:21.847Z,35.86
2023-05-01T13:09:59.325Z,36.56
2023-05-01T13:12:29.582Z,34.00
2023-05-01T13:14:58.608Z,33.74
2023-05-01T13:17:32.834Z,34.02
2023-05-01T13:20:06.262Z,35.65
2023-05-01T13:22:36.738Z,37.41
2023-05-01T13:25:18.399Z,37.28
2023-05-01T13:27:54.398Z,37.20
2023-05-01T13:30:34.198Z,36.78
2023-05-01T13:33:03.223Z,34.43
2023-05-01T13:35:32.491Z,33.67
2023-05-01T13:38:01.790Z,36.29
2023-05-01T13:40:30.699Z,35.84
2023-05-01T13:42:59.323Z,35.70
2023-05-01T13:45:28.141Z,35.74
2023-05-01T13:47:58.495Z,35.34
2023-05-01T13:50:27.798Z,33.77
2023-05-01T13:52:56.538Z,33.27
2023-05-01T13:55:26.296Z,32.90
2023-05-01T13:57:54.941Z,33.27
2023-05-01T14:00:24.181Z,33.42
2023-05-01T14:02:56.691Z,32.87
2023-05-01T14:05:29.683Z,33.04
2023-05-01T14:08:00.379Z,32.91
2023-05-01T14:10:30.248Z,33.04
2023-05-01T14:13:03.894Z,32.80
2023-05-01T14:15:35.185Z,32.92
2023-05-01T14:18:08.116Z,32.55
2023-05-01T14:20:36.693Z,32.69
2023-05-01T14:23:06.152Z,32.96
2023-05-01T14:25:35.475Z,33.37
2023-05-01T14:28:08.008Z,32.64
2023-05-01T14:30:39.238Z,32.30
2023-05-01T14:33:11.327Z,34.12
2023-05-01T14:35:51.178Z,35.38
2023-05-01T14:38:22.016Z,33.48
2023-05-01T14:40:50.841Z,33.12
2023-05-01T14:43:22.733Z,33.96
2023-05-01T14:45:51.509Z,32.46
2023-05-01T14:48:34.354Z,32.86
2023-05-01T14:51:02.897Z,32.46
2023-05-01T14:53:34.877Z,32.79
2023-05-01T14:56:03.654Z,34.86
2023-05-01T14:58:32.511Z,37.54
2023-05-01T15:01:03.335Z,39.70
2023-05-01T15:03:32.313Z,34.32
2023-05-01T15:06:00.976Z,35.65
2023-05-01T15:08:30.474Z,33.47
2023-05-01T15:10:59.051Z,33.33
2023-05-01T15:13:27.884Z,33.17
2023-05-01T15:15:56.765Z,33.64
2023-05-01T15:18:25.715Z,33.99
2023-05-01T15:20:54.386Z,35.31
2023-05-01T15:23:22.923Z,36.37
2023-05-01T15:25:51.967Z,36.07
2023-05-01T15:28:20.454Z,34.73
2023-05-01T15:30:49.298Z,34.51
2023-05-01T15:33:19.313Z,36.08
2023-05-01T15:35:51.141Z,39.25
2023-05-01T15:38:20.510Z,40.21
2023-05-01T15:40:49.962Z,40.33
2023-05-01T15:43:18.652Z,41.41
2023-05-01T15:45:47.319Z,42.19
2023-05-01T15:48:16.006Z,41.22
2023-05-01T15:50:45.586Z,41.54
2023-05-01T15:53:17.220Z,41.49
2023-05-01T15:55:46.133Z,41.99
2023-05-01T15:58:16.112Z,41.19
2023-05-01T16:00:48.214Z,41.18
2023-05-01T16:03:18.172Z,41.32
2023-05-01T16:05:48.070Z,41.64
2023-05-01T16:08:16.650Z,41.05
2023-05-01T16:10:45.171Z,41.15
2023-05-01T16:13:13.867Z,41.24
2023-05-01T16:15:42.647Z,41.07
2023-05-01T16:18:19.765Z,40.98
2023-05-01T16:20:48.390Z,40.52
2023-05-01T16:23:17.273Z,41.43
2023-05-01T16:25:46.068Z,40.50
2023-05-01T16:28:15.026Z,39.59
2023-05-01T16:30:44.452Z,40.53
2023-05-01T16:33:23.742Z,40.88
2023-05-01T16:35:52.392Z,41.15
2023-05-01T16:38:21.519Z,41.25
2023-05-01T16:40:50.066Z,41.55
2023-05-01T16:43:18.574Z,41.24
2023-05-01T16:45:48.060Z,41.26
2023-05-01T16:48:24.727Z,41.62
2023-05-01T16:50:53.680Z,42.39
2023-05-01T16:53:23.646Z,43.13
2023-05-01T16:55:52.980Z,43.60
2023-05-01T16:58:21.694Z,44.54
2023-05-01T17:00:50.600Z,44.57
2023-05-01T17:03:19.455Z,44.87
2023-05-01T17:05:47.957Z,45.21
2023-05-01T17:08:16.664Z,45.21
2023-05-01T17:10:45.454Z,45.50
2023-05-01T17:13:16.008Z,45.53
2023-05-01T17:15:44.774Z,45.39
2023-05-01T17:18:13.443Z,44.80
2023-05-01T17:20:41.920Z,44.62
2023-05-01T17:23:10.909Z,44.69
2023-05-01T17:25:39.468Z,45.10
2023-05-01T17:28:08.188Z,45.37
2023-05-01T17:30:36.626Z,45.40
2023-05-01T17:33:07.888Z,45.57
2023-05-01T17:35:36.455Z,46.44
2023-05-01T17:38:05.063Z,47.00
2023-05-01T17:40:33.721Z,46.83
2023-05-01T17:43:03.155Z,46.07
2023-05-01T17:45:31.661Z,46.54
2023-05-01T17:48:00.969Z,47.68
2023-05-01T17:50:29.856Z,48.26
2023-05-01T17:52:58.688Z,48.54
2023-05-01T17:55:27.985Z,48.84
2023-05-01T17:57:56.971Z,49.13
2023-05-01T18:00:27.611Z,50.22
2023-05-01T18:02:56.440Z,51.50
2023-05-01T18:05:25.019Z,53.38
2023-05-01T18:07:53.946Z,54.83
2023-05-01T18:10:23.917Z,56.13
2023-05-01T18:12:52.646Z,57.04
2023-05-01T18:15:22.977Z,57.44
2023-05-01T18:17:51.800Z,57.89
2023-05-01T18:20:20.795Z,58.24
2023-05-01T18:22:49.275Z,59.58
2023-05-01T18:25:18.416Z,61.89
2023-05-01T18:27:47.450Z,64.34
2023-05-01T18:30:16.963Z,65.71
2023-05-01T18:32:48.819Z,67.05
2023-05-01T18:35:19.053Z,68.54
2023-05-01T18:37:47.773Z,69.62
2023-05-01T18:40:16.486Z,70.25
2023-05-01T18:42:45.501Z,69.71
2023-05-01T18:45:14.249Z,66.87
2023-05-01T18:47:42.939Z,63.51
2023-05-01T18:50:11.915Z,60.80
2023-05-01T18:52:42.246Z,60.33
2023-05-01T18:55:11.579Z,62.76
2023-05-01T18:57:41.832Z,63.99
2023-05-01T19:00:12.157Z,64.31
2023-05-01T19:02:40.792Z,66.75
2023-05-01T19:05:10.388Z,67.64
2023-05-01T19:07:39.053Z,66.47
2023-05-01T19:10:08.261Z,65.62
2023-05-01T19:12:36.841Z,65.55
2023-05-01T19:15:05.473Z,64.58
2023-05-01T19:17:34.059Z,63.11
2023-05-01T19:20:04.695Z,62.49
2023-05-01T19:22:33.291Z,62.48
2023-05-01T19:25:02.234Z,62.19
2023-05-01T19:27:31.240Z,62.29
2023-05-01T19:30:01.396Z,62.29
2023-05-01T19:32:30.424Z,62.65
2023-05-01T19:34:58.995Z,63.06
2023-05-01T19:37:28.971Z,62.99
2023-05-01T19:39:58.027Z,62.94
2023-05-01T19:42:27.159Z,63.13
2023-05-01T19:44:55.811Z,63.85
2023-05-01T19:47:24.359Z,63.63
2023-05-01T19:49:53.491Z,63.79
2023-05-01T19:52:21.973Z,64.18
2023-05-01T19:54:50.470Z,64.95
2023-05-01T19:57:18.953Z,65.79
2023-05-01T19:59:47.623Z,65.64
2023-05-01T20:02:16.345Z,65.25
2023-05-01T20:04:44.950Z,65.20
2023-05-01T20:07:13.275Z,65.45
2023-05-01T20:09:41.741Z,65.59
2023-05-01T20:12:10.340Z,66.01
2023-05-01T20:14:38.480Z,65.95
2023-05-01T20:17:07.491Z,66.39
2023-05-01T20:19:39.584Z,66.90
2023-05-01T20:22:08.734Z,67.31
2023-05-01T20:24:37.358Z,66.96
2023-05-01T20:27:05.894Z,67.56
2023-05-01T20:29:34.391Z,68.52
2023-05-01T20:32:04.009Z,68.38
2023-05-01T20:34:32.971Z,68.44
2023-05-01T20:37:01.404Z,69.24
2023-05-01T20:39:29.992Z,69.67
2023-05-01T20:41:59.155Z,69.77
2023-05-01T20:44:28.014Z,69.59
2023-05-01T20:46:56.667Z,69.48
2023-05-01T20:49:25.248Z,69.67
2023-05-01T20:51:53.920Z,68.72
2023-05-01T20:54:22.125Z,68.32
2023-05-01T20:56:50.792Z,68.37
2023-05-01T20:59:19.218Z,68.14
2023-05-01T21:01:47.928Z,68.67
2023-05-01T21:04:16.764Z,68.40
2023-05-01T21:06:45.693Z,69.00
2023-05-01T21:09:15.134Z,69.05
2023-05-01T21:11:43.636Z,68.94
2023-05-01T21:14:12.378Z,69.52
2023-05-01T21:16:41.438Z,69.74
2023-05-01T21:19:13.500Z,69.97
2023-05-01T21:21:42.015Z,70.25
2023-05-01T21:24:11.034Z,71.01
2023-05-01T21:26:40.024Z,71.51
2023-05-01T21:29:09.854Z,71.83
2023-05-01T21:31:38.520Z,71.64
2023-05-01T21:34:07.161Z,71.60
2023-05-01T21:36:35.704Z,71.87
2023-05-01T21:39:03.936Z,72.11
2023-05-01T21:41:32.628Z,72.52
2023-05-01T21:44:01.328Z,72.64
2023-05-01T21:46:29.961Z,72.70
2023-05-01T21:48:58.462Z,73.06
2023-05-01T21:51:29.891Z,73.19
2023-05-01T21:53:58.144Z,73.93
2023-05-01T21:56:26.742Z,74.06
2023-05-01T21:59:02.815Z,74.27
2023-05-01T22:01:31.636Z,74.56
2023-05-01T22:04:00.441Z,74.99
2023-05-01T22:06:29.548Z,75.31
2023-05-01T22:08:57.678Z,75.43
2023-05-01T22:11:26.481Z,75.70
2023-05-01T22:13:54.955Z,75.84
2023-05-01T22:16:23.411Z,75.79
2023-05-01T22:18:51.627Z,75.94
2023-05-01T22:21:20.191Z,76.11
2023-05-01T22:23:49.639Z,76.03
2023-05-01T22:26:18.082Z,76.38
2023-05-01T22:28:46.781Z,76.58
2023-05-01T22:31:15.229Z,76.78
2023-05-01T22:33:43.947Z,76.55
2023-05-01T22:36:12.532Z,76.59
2023-05-01T22:38:41.125Z,77.10
2023-05-01T22:41:09.682Z,77.07
2023-05-01T22:43:38.182Z,77.03
2023-05-01T22:46:06.871Z,77.12
2023-05-01T22:48:35.543Z,77.11
2023-05-01T22:51:03.810Z,77.21
2023-05-01T22:53:32.159Z,77.32
2023-05-01T22:56:00.780Z,77.35
2023-05-01T22:58:29.361Z,77.43
2023-05-01T23:00:57.895Z,77.46
2023-05-01T23:03:26.736Z,77.65
2023-05-01T23:05:55.439Z,77.51
2023-05-01T23:08:24.076Z,77.43
2023-05-01T23:10:52.568Z,77.52
2023-05-01T23:13:23.631Z,77.94
2023-05-01T23:15:52.847Z,77.81
2023-05-01T23:18:33.900Z,77.42
2023-05-01T23:21:02.615Z,77.46
2023-05-01T23:23:33.133Z,77.35
2023-05-01T23:26:01.703Z,77.72
2023-05-01T23:28:30.523Z,77.07
2023-05-01T23:31:04.423Z,77.03
2023-05-01T23:33:37.054Z,76.85
2023-05-01T23:36:06.718Z,76.77
2023-05-01T23:38:35.297Z,76.99
2023-05-01T23:41:04.017Z,76.72
2023-05-01T23:43:32.868Z,76.70
2023-05-01T23:46:01.930Z,76.80
2023-05-01T23:48:30.427Z,76.89
2023-05-01T23:50:59.277Z,76.72
2023-05-01T23:53:28.009Z,76.55
2023-05-01T23:55:56.479Z,76.61
2023-05-01T23:58:25.593Z,76.56
